PWSweather.com
Personal Weather Stations
Station Observations
948974
Valtournenche, AostaIT 11028

ValtournencheAostaIT 11028

Lat: 45.877222, Lon: 7.625556

Elevation: 5085.3018

Station Type: PCE-FWS 20

http://www.cdso.it

High Low Average
Temperature 41.5°F5.3°C 26.2°F-3.2°C 33.0°F0.6°C
Dew Point 25.2°F-3.8°C 0.5°F-17.5°C 10.6°F-11.9°C
Winds 13.0 mph 20.9 kmh Calm Calm 4.0 mph S6.4 kmh S
Wind Gusts 17.0 mph27.4 kmh 2.0 mph3.2 kmh 6.0 mph9.7 kmh
Humidity 81% 21% 43%
Pressure 30.13 in1020.3 mb 29.85 in1010.8 mb -
Precipitation 0.01 in0.3 mm - -
Hour Temp Dew Point Humidity Winds Wind Gusts Pressure Precip Precip Rate Daily Precip Total
12:08 AM 30.9°F-0.6°C 16.3°F-8.7°C 54% 1.0 mph NE1.6 kmh NE 2.0 mph3.2 kmh 30.13 in1020.3 mb 0.00 in0.0 mm 0.00 in0.0 mm 0.00 in0.0 mm
12:29 AM 31.1°F-0.5°C 16.8°F-8.4°C 55% 2.0 mph 3.2 kmh 3.0 mph4.8 kmh 30.12 in1020.0 mb 0.00 in0.0 mm 0.00 in0.0 mm 0.00 in0.0 mm
12:50 AM 31.5°F-0.3°C 15.9°F-8.9°C 52% 2.0 mph S3.2 kmh S 3.0 mph4.8 kmh 30.12 in1020.0 mb 0.00 in0.0 mm 0.00 in0.0 mm 0.00 in0.0 mm
01:11 AM 31.1°F-0.5°C 14.2°F-9.9°C 49% 1.0 mph E1.6 kmh E 2.0 mph3.2 kmh 30.11 in1019.6 mb 0.00 in0.0 mm 0.00 in0.0 mm 0.00 in0.0 mm
01:32 AM 31.1°F-0.5°C 16.4°F-8.7°C 54% 1.0 mph NE1.6 kmh NE 2.0 mph3.2 kmh 30.08 in1018.6 mb 0.00 in0.0 mm 0.00 in0.0 mm 0.00 in0.0 mm
01:53 AM 32.2°F0.1°C 17.0°F-8.3°C 53% 2.0 mph E3.2 kmh E 2.0 mph3.2 kmh 30.06 in1017.9 mb 0.00 in0.0 mm 0.00 in0.0 mm 0.00 in0.0 mm
02:14 AM 31.3°F-0.4°C 16.2°F-8.8°C 53% 1.0 mph SE1.6 kmh SE 2.0 mph3.2 kmh 30.06 in1017.9 mb 0.00 in0.0 mm 0.00 in0.0 mm 0.00 in0.0 mm
02:35 AM 30.2°F-1.0°C 14.3°F-9.8°C 51% 2.0 mph SE3.2 kmh SE 3.0 mph4.8 kmh 30.07 in1018.3 mb 0.00 in0.0 mm 0.00 in0.0 mm 0.00 in0.0 mm
02:56 AM 30.4°F-0.9°C 13.1°F-10.5°C 48% 2.0 mph SE3.2 kmh SE 2.0 mph3.2 kmh 30.05 in1017.6 mb 0.00 in0.0 mm 0.00 in0.0 mm 0.00 in0.0 mm
03:17 AM 30.0°F-1.1°C 16.7°F-8.5°C 57% 2.0 mph 3.2 kmh 4.0 mph6.4 kmh 30.05 in1017.6 mb 0.00 in0.0 mm 0.00 in0.0 mm 0.00 in0.0 mm
03:38 AM 28.8°F-1.8°C 20.6°F-6.3°C 71% 2.0 mph S3.2 kmh S 4.0 mph6.4 kmh 30.06 in1017.9 mb 0.00 in0.0 mm 0.00 in0.0 mm 0.00 in0.0 mm
03:59 AM 27.7°F-2.4°C 19.5°F-6.9°C 71% 1.0 mph SE1.6 kmh SE 2.0 mph3.2 kmh 30.07 in1018.3 mb 0.00 in0.0 mm 0.00 in0.0 mm 0.00 in0.0 mm
04:20 AM 27.3°F-2.6°C 18.8°F-7.3°C 70% 3.0 mph NE4.8 kmh NE 4.0 mph6.4 kmh 30.09 in1019.0 mb 0.00 in0.0 mm 0.00 in0.0 mm 0.00 in0.0 mm
04:41 AM 27.0°F-2.8°C 17.8°F-7.9°C 68% 2.0 mph NE3.2 kmh NE 2.0 mph3.2 kmh 30.09 in1019.0 mb 0.00 in0.0 mm 0.00 in0.0 mm 0.00 in0.0 mm
05:02 AM 26.2°F-3.2°C 18.8°F-7.3°C 73% 1.0 mph 1.6 kmh 2.0 mph3.2 kmh 30.09 in1019.0 mb 0.00 in0.0 mm 0.00 in0.0 mm 0.00 in0.0 mm
05:23 AM 26.2°F-3.2°C 20.3°F-6.5°C 78% 3.0 mph NE4.8 kmh NE 4.0 mph6.4 kmh 30.07 in1018.3 mb 0.00 in0.0 mm 0.00 in0.0 mm 0.00 in0.0 mm
05:44 AM 26.6°F-3.0°C 20.7°F-6.3°C 78% 1.0 mph NW1.6 kmh NW 2.0 mph3.2 kmh 30.06 in1017.9 mb 0.00 in0.0 mm 0.00 in0.0 mm 0.00 in0.0 mm
06:05 AM 27.0°F-2.8°C 21.9°F-5.6°C 81% 2.0 mph NW3.2 kmh NW 4.0 mph6.4 kmh 30.05 in1017.6 mb 0.00 in0.0 mm 0.00 in0.0 mm 0.00 in0.0 mm
06:26 AM 28.0°F-2.2°C 23.0°F-5.0°C 81% 4.0 mph NW6.4 kmh NW 5.0 mph8.0 kmh 30.02 in1016.6 mb 0.00 in0.0 mm 0.00 in0.0 mm 0.00 in0.0 mm
06:47 AM 28.0°F-2.2°C 22.4°F-5.3°C 79% 2.0 mph NW3.2 kmh NW 2.0 mph3.2 kmh 30.02 in1016.6 mb 0.00 in0.0 mm 0.00 in0.0 mm 0.00 in0.0 mm
07:08 AM 27.3°F-2.6°C 21.4°F-5.9°C 78% 1.0 mph NW1.6 kmh NW 2.0 mph3.2 kmh 30.03 in1016.9 mb 0.00 in0.0 mm 0.00 in0.0 mm 0.00 in0.0 mm
07:29 AM 26.8°F-2.9°C 20.9°F-6.2°C 78% 1.0 mph NW1.6 kmh NW 2.0 mph3.2 kmh 30.04 in1017.3 mb 0.00 in0.0 mm 0.00 in0.0 mm 0.00 in0.0 mm
07:50 AM 27.3°F-2.6°C 22.0°F-5.6°C 80% 1.0 mph NW1.6 kmh NW 3.0 mph4.8 kmh 30.05 in1017.6 mb 0.00 in0.0 mm 0.00 in0.0 mm 0.00 in0.0 mm
08:11 AM 28.2°F-2.1°C 22.6°F-5.2°C 79% 2.0 mph NW3.2 kmh NW 4.0 mph6.4 kmh 30.03 in1016.9 mb 0.00 in0.0 mm 0.00 in0.0 mm 0.00 in0.0 mm
08:32 AM 30.2°F-1.0°C 25.1°F-3.8°C 81% 2.0 mph NW3.2 kmh NW 3.0 mph4.8 kmh 30.01 in1016.3 mb 0.00 in0.0 mm 0.00 in0.0 mm 0.00 in0.0 mm
08:53 AM 32.2°F0.1°C 25.2°F-3.8°C 75% 2.0 mph NW3.2 kmh NW 2.0 mph3.2 kmh 29.99 in1015.6 mb 0.00 in0.0 mm 0.00 in0.0 mm 0.00 in0.0 mm
09:14 AM 37.2°F2.9°C 21.2°F-6.0°C 52% 2.0 mph E3.2 kmh E 3.0 mph4.8 kmh 29.93 in1013.5 mb 0.01 in0.3 mm 0.02 in0.5 mm 0.01 in0.3 mm
09:35 AM 36.7°F2.6°C 9.6°F-12.4°C 32% 6.0 mph S9.7 kmh S 11.0 mph17.7 kmh 29.93 in1013.5 mb 0.01 in0.3 mm 0.00 in0.0 mm 0.01 in0.3 mm
09:56 AM 36.7°F2.6°C 1.5°F-16.9°C 22% 8.0 mph SE12.9 kmh SE 10.0 mph16.1 kmh 29.93 in1013.5 mb 0.01 in0.3 mm 0.00 in0.0 mm 0.01 in0.3 mm
10:17 AM 37.4°F3.0°C 4.8°F-15.1°C 25% 8.0 mph S12.9 kmh S 12.0 mph19.3 kmh 29.93 in1013.5 mb 0.00 in0.0 mm 0.00 in0.0 mm 0.01 in0.3 mm
10:39 AM 38.3°F3.5°C 6.5°F-14.2°C 26% 11.0 mph SSE17.7 kmh SSE 11.0 mph17.7 kmh 29.90 in1012.5 mb 0.00 in0.0 mm 0.00 in0.0 mm 0.01 in0.3 mm
11:00 AM 38.8°F3.8°C 6.9°F-13.9°C 26% 5.0 mph NE8.0 kmh NE 13.0 mph20.9 kmh 29.92 in1013.2 mb 0.00 in0.0 mm 0.00 in0.0 mm 0.01 in0.3 mm
11:21 AM 40.3°F4.6°C 6.4°F-14.2°C 24% 6.0 mph SE9.7 kmh SE 8.0 mph12.9 kmh 29.90 in1012.5 mb 0.00 in0.0 mm 0.00 in0.0 mm 0.01 in0.3 mm
11:43 AM 38.5°F3.6°C 6.6°F-14.1°C 26% 3.0 mph WNW4.8 kmh WNW 6.0 mph9.7 kmh 29.92 in1013.2 mb 0.00 in0.0 mm 0.00 in0.0 mm 0.01 in0.3 mm
12:04 PM 37.9°F3.3°C 6.1°F-14.4°C 26% 6.0 mph S9.7 kmh S 10.0 mph16.1 kmh 29.91 in1012.9 mb 0.00 in0.0 mm 0.00 in0.0 mm 0.01 in0.3 mm
12:25 PM 38.5°F3.6°C 6.6°F-14.1°C 26% 4.0 mph SE6.4 kmh SE 7.0 mph11.3 kmh 29.91 in1012.9 mb 0.00 in0.0 mm 0.00 in0.0 mm 0.01 in0.3 mm
12:47 PM 38.1°F3.4°C 6.3°F-14.3°C 26% 6.0 mph SSW9.7 kmh SSW 7.0 mph11.3 kmh 29.90 in1012.5 mb 0.00 in0.0 mm 0.00 in0.0 mm 0.01 in0.3 mm
01:08 PM 41.5°F5.3°C 6.5°F-14.2°C 23% 5.0 mph 8.0 kmh 8.0 mph12.9 kmh 29.85 in1010.8 mb 0.00 in0.0 mm 0.00 in0.0 mm 0.01 in0.3 mm
01:29 PM 38.1°F3.4°C 6.3°F-14.3°C 26% 5.0 mph NE8.0 kmh NE 11.0 mph17.7 kmh 29.89 in1012.2 mb 0.00 in0.0 mm 0.00 in0.0 mm 0.01 in0.3 mm
01:50 PM 37.8°F3.2°C 6.0°F-14.4°C 26% 8.0 mph S12.9 kmh S 11.0 mph17.7 kmh 29.89 in1012.2 mb 0.00 in0.0 mm 0.00 in0.0 mm 0.01 in0.3 mm
02:11 PM 37.4°F3.0°C 5.7°F-14.6°C 26% 10.0 mph S16.1 kmh S 17.0 mph27.4 kmh 29.90 in1012.5 mb 0.00 in0.0 mm 0.00 in0.0 mm 0.01 in0.3 mm
02:32 PM 36.7°F2.6°C 1.5°F-16.9°C 22% 5.0 mph S8.0 kmh S 9.0 mph14.5 kmh 29.90 in1012.5 mb 0.00 in0.0 mm 0.00 in0.0 mm 0.01 in0.3 mm
02:53 PM 36.7°F2.6°C 0.5°F-17.5°C 21% 9.0 mph SE14.5 kmh SE 17.0 mph27.4 kmh 29.90 in1012.5 mb 0.00 in0.0 mm 0.00 in0.0 mm 0.01 in0.3 mm
03:15 PM 35.6°F2.0°C 0.6°F-17.4°C 22% 5.0 mph SE8.0 kmh SE 9.0 mph14.5 kmh 29.91 in1012.9 mb 0.00 in0.0 mm 0.00 in0.0 mm 0.01 in0.3 mm
03:36 PM 37.8°F3.2°C 6.8°F-14.0°C 27% 5.0 mph SE8.0 kmh SE 11.0 mph17.7 kmh 29.89 in1012.2 mb 0.00 in0.0 mm 0.00 in0.0 mm 0.01 in0.3 mm
03:57 PM 36.1°F2.3°C 1.0°F-17.2°C 22% 13.0 mph SE20.9 kmh SE 16.0 mph25.7 kmh 29.90 in1012.5 mb 0.00 in0.0 mm 0.00 in0.0 mm 0.01 in0.3 mm
04:19 PM 35.1°F1.7°C 1.0°F-17.2°C 23% 4.0 mph SE6.4 kmh SE 6.0 mph9.7 kmh 29.92 in1013.2 mb 0.00 in0.0 mm 0.00 in0.0 mm 0.01 in0.3 mm
04:40 PM 35.2°F1.8°C 1.2°F-17.1°C 23% 5.0 mph SE8.0 kmh SE 9.0 mph14.5 kmh 29.93 in1013.5 mb 0.00 in0.0 mm 0.00 in0.0 mm 0.01 in0.3 mm
05:01 PM 35.1°F1.7°C 1.0°F-17.2°C 23% 11.0 mph SE17.7 kmh SE 16.0 mph25.7 kmh 29.93 in1013.5 mb 0.00 in0.0 mm 0.00 in0.0 mm 0.01 in0.3 mm
05:22 PM 34.5°F1.4°C 1.5°F-16.9°C 24% 4.0 mph SE6.4 kmh SE 6.0 mph9.7 kmh 29.95 in1014.2 mb 0.00 in0.0 mm 0.00 in0.0 mm 0.01 in0.3 mm
05:43 PM 34.2°F1.2°C 1.2°F-17.1°C 24% 3.0 mph SE4.8 kmh SE 7.0 mph11.3 kmh 29.95 in1014.2 mb 0.00 in0.0 mm 0.00 in0.0 mm 0.01 in0.3 mm
06:04 PM 33.4°F0.8°C 3.1°F-16.1°C 27% 4.0 mph SE6.4 kmh SE 5.0 mph8.0 kmh 29.96 in1014.6 mb 0.00 in0.0 mm 0.00 in0.0 mm 0.01 in0.3 mm
06:25 PM 33.3°F0.7°C 5.2°F-14.9°C 30% 9.0 mph SE14.5 kmh SE 14.0 mph22.5 kmh 29.96 in1014.6 mb 0.00 in0.0 mm 0.00 in0.0 mm 0.01 in0.3 mm
06:46 PM 32.5°F0.3°C 8.0°F-13.3°C 35% 2.0 mph SE3.2 kmh SE 4.0 mph6.4 kmh 29.98 in1015.2 mb 0.00 in0.0 mm 0.00 in0.0 mm 0.01 in0.3 mm
07:07 PM 32.7°F0.4°C 6.8°F-14.0°C 33% 2.0 mph SE3.2 kmh SE 2.0 mph3.2 kmh 29.97 in1014.9 mb 0.00 in0.0 mm 0.00 in0.0 mm 0.01 in0.3 mm
07:28 PM 33.1°F0.6°C 4.3°F-15.4°C 29% 4.0 mph SE6.4 kmh SE 8.0 mph12.9 kmh 29.97 in1014.9 mb 0.00 in0.0 mm 0.00 in0.0 mm 0.01 in0.3 mm
07:49 PM 32.9°F0.5°C 4.9°F-15.1°C 30% 10.0 mph SW16.1 kmh SW 14.0 mph22.5 kmh 29.97 in1014.9 mb 0.00 in0.0 mm 0.00 in0.0 mm 0.01 in0.3 mm
08:10 PM 32.0°F0.0°C 9.9°F-12.3°C 39% 4.0 mph SW6.4 kmh SW 8.0 mph12.9 kmh 29.98 in1015.2 mb 0.00 in0.0 mm 0.00 in0.0 mm 0.01 in0.3 mm
08:31 PM 32.7°F0.4°C 5.5°F-14.7°C 31% 8.0 mph SW12.9 kmh SW 11.0 mph17.7 kmh 29.98 in1015.2 mb 0.00 in0.0 mm 0.00 in0.0 mm 0.01 in0.3 mm
08:52 PM 33.1°F0.6°C 3.6°F-15.8°C 28% 4.0 mph S6.4 kmh S 6.0 mph9.7 kmh 29.99 in1015.6 mb 0.00 in0.0 mm 0.00 in0.0 mm 0.01 in0.3 mm
09:13 PM 33.6°F0.9°C 2.4°F-16.4°C 26% 7.0 mph SW11.3 kmh SW 9.0 mph14.5 kmh 29.99 in1015.6 mb 0.00 in0.0 mm 0.00 in0.0 mm 0.01 in0.3 mm
09:34 PM 32.9°F0.5°C 3.4°F-15.9°C 28% Calm Calm 2.0 mph3.2 kmh 30.01 in1016.3 mb 0.00 in0.0 mm 0.00 in0.0 mm 0.01 in0.3 mm
09:55 PM 33.1°F0.6°C 2.0°F-16.7°C 26% 2.0 mph W3.2 kmh W 2.0 mph3.2 kmh 30.01 in1016.3 mb 0.00 in0.0 mm 0.00 in0.0 mm 0.01 in0.3 mm
10:16 PM 33.1°F0.6°C 2.0°F-16.7°C 26% 3.0 mph NW4.8 kmh NW 4.0 mph6.4 kmh 30.02 in1016.6 mb 0.00 in0.0 mm 0.00 in0.0 mm 0.01 in0.3 mm
10:37 PM 32.4°F0.2°C 6.5°F-14.2°C 33% 4.0 mph SW6.4 kmh SW 5.0 mph8.0 kmh 30.03 in1016.9 mb 0.00 in0.0 mm 0.00 in0.0 mm 0.01 in0.3 mm
10:58 PM 32.2°F0.1°C 10.0°F-12.2°C 39% 8.0 mph SSE12.9 kmh SSE 11.0 mph17.7 kmh 30.04 in1017.3 mb 0.00 in0.0 mm 0.00 in0.0 mm 0.01 in0.3 mm
11:19 PM 31.8°F-0.1°C 12.4°F-10.9°C 44% 5.0 mph S8.0 kmh S 9.0 mph14.5 kmh 30.04 in1017.3 mb 0.00 in0.0 mm 0.00 in0.0 mm 0.01 in0.3 mm
11:40 PM 31.5°F-0.3°C 12.6°F-10.8°C 45% 3.0 mph S4.8 kmh S 4.0 mph6.4 kmh 30.04 in1017.3 mb 0.00 in0.0 mm 0.00 in0.0 mm 0.01 in0.3 mm